Welcome to the New NWS' Forecast!
Most changes are behind the scenes, but click here for differences you might notice.

Terminal Aerodrome Forecast (TAF)

Issued by National Weather Service (NWS)

                            
272 
FTUS42 KKEY 221124
TAFEYW
TAF
KEYW 221124Z 2212/2312 06004KT P6SM SCT020=